If you wish to contribute or participate in the discussions about articles you are invited to join SKYbrary as a registered user

 Actions

Ain Arnat Airport

From SKYbrary Wiki

DAAS
Airport
ICAO: DAAS – IATA: QSF
Summary
Name Ain Arnat Airport
Region Africa
Territory Algeria DZ.gif
Location , Setif
Serving Setif
Elevation 1,024.128 m
3,360 ft
3,360 ft1,024.128 m
Type medium airport
Coordinates 36° 10' 41.16", 5° 19' 28.164"
Runways
Designator Length Width Surface ROPS


METAR
Observation DAAS 250000Z 34004KT 9999 SCT030 04/01 Q1007
Station Setif
Date/Time 25 February 2018 00:00:00
Wind direction 340°
Wind speed 04 kts
Lowest cloud amount scattered clouds
Temperature 4°C
Dew point 1°C
Humidity 80%
QNH 1007 hPa
Weather condition n/a